aviador You're here:

MMZH Decoded Metar

ZIHUATANEJO in MEXICO
Report Time2017-08-20 12:43:00
UTC Time2017-08-20 13:40:47
Flight Rules vfr VFR
Wind020° at 02 kt
W.Decomp.*RWY 08: 0.8 kt HW 1.8 kt LCW
W.Rank020° ranks 30
Current wind is below 020° avg. (4.4)
Visibility9999 m
Phenomena:N/A
Clouds:Few 090 Hf
Few 250 Hf
Expected CloudBase > 1,200 ft AGL from Temp-Dew spread
CeilingNone
Temp25°C (ISA +10)
Dew Point22°C (83% RH)
QNH1011 hPa
Density Alt1,598 ft
Elevation20 ft
Report Wrong Elevation
Raw Report
MMZH 201243Z 02002KT 7SM FEW090 FEW250 25/22 A2986 RMK 8/032 HZY
DSNT TCU W=

Extra information for MMZH:More info

Metar Taf Metar & Taf Last 4 Metars F.Rules Stats Wind Profile Meteogram Temp Stats Airport Information Weather charts Add Link Nearby VenuesMetar ALERT Operation Metar Decoded Social comments